Sunday, April 22, 2018, 1:07 AM GMT
Back to Local

CWIS, Charlevoix CS , Que.

Location: , , Canada Lat: 47.283
Local Time: 1:07 AM GMT ( 1:07 GMT) Lon: -70.633
Time Zone: GMT Elev: 2358 ft

Show me the last for .
Show Decoded

2018-04-22 00:00 METAR CWIS 220000Z AUTO 31006KT M01/M08 RMK AO1 SOG 132 3010 SLP234 T10061082 =
2018-04-21 23:00 METAR CWIS 212300Z AUTO 32007G16KT 01/M08 RMK AO1 SOG 132 3000 PK WND 32018/2246
                 SLP227 T00091080 =
2018-04-21 22:00 METAR CWIS 212200Z AUTO 33006KT 02/M08 RMK AO1 SOG 132 3000 SLP221 T00181080 =
2018-04-21 21:00 METAR CWIS 212100Z AUTO 31010G16KT 02/M08 RMK AO1 SOG 132 5000 PK WND 32018/2035
                 SLP219 T00221080 =
2018-04-21 20:00 METAR CWIS 212000Z AUTO 33008KT 02/M08 RMK AO1 SOG 132 8000 PK WND 32017/1911
                 SLP217 T00231077 =
2018-04-21 19:00 METAR CWIS 211900Z AUTO 32008G19KT 03/M07 RMK AO1 SOG 132 8000 PK WND 32019/1853
                 SLP216 T00271074 =
2018-04-21 18:00 METAR CWIS 211800Z AUTO 32009G16KT 03/M07 RMK AO1 SOG 132 2000 PK WND 32018/1734
                 SLP219 T00271068 =
2018-04-21 17:00 METAR CWIS 211700Z AUTO 33007G16KT 02/M06 RMK AO1 SOG 132 6000 PK WND 00018/1615
                 SLP219 T00191064 =
2018-04-21 16:00 METAR CWIS 211600Z AUTO 35007KT 01/M06 RMK AO1 SOG 133 5000 PK WND 02018/1514
                 SLP221 T00101058 =
2018-04-21 15:00 METAR CWIS 211500Z AUTO 33008G20KT 01/M06 RMK AO1 SOG 133 0000 PK WND 32020/1451
                 SLP219 T00131062 =
2018-04-21 14:00 METAR CWIS 211400Z AUTO 33007G16KT M01/M06 RMK AO1 SOG 133 1000 PK WND
                 29018/1346 SLP223 T10051064 =
2018-04-21 13:00 METAR CWIS 211300Z AUTO 35009G16KT M02/M07 RMK AO1 SOG 133 3000 PK WND
                 33020/1223 SLP224 T10161073 =
2018-04-21 12:00 METAR CWIS 211200Z AUTO 33012G20KT M03/M07 RMK AO1 SOG 133 3000 PK WND
                 31021/1114 SLP221 T10291071 =
2018-04-21 11:00 METAR CWIS 211100Z AUTO 31007KT M04/M06 RMK AO1 SOG 133 1000 SLP218 T10371058 =
2018-04-21 10:00 METAR CWIS 211000Z AUTO 32006KT M04/M06 RMK AO1 SOG 133 1000 SLP216 T10401055 =
2018-04-21 09:00 METAR CWIS 210900Z AUTO 32005KT M04/M05 RMK AO1 SOG 133 3000 SLP213 T10401050 =
2018-04-21 08:00 METAR CWIS 210800Z AUTO 33004KT M04/M05 RMK AO1 SOG 133 3000 SLP209 T10351047 =
2018-04-21 07:00 METAR CWIS 210700Z AUTO 32006KT M03/M04 RMK AO1 SOG 133 2000 SLP206 T10281042 =
2018-04-21 06:00 METAR CWIS 210600Z AUTO 34006KT M03/M04 RMK AO1 SOG 133 3000 SLP205 T10261044 =
2018-04-21 05:00 METAR CWIS 210500Z AUTO 35004KT M02/M04 RMK AO1 SOG 133 2000 SLP204 T10151037 =
2018-04-21 04:00 METAR CWIS 210400Z AUTO 34005KT M02/M03 RMK AO1 SOG 133 1000 SLP203 T10221028 =
2018-04-21 03:00 METAR CWIS 210300Z AUTO 34007KT M02/M03 RMK AO1 SOG 133 1010 SLP204 T10171031 =
2018-04-21 02:00 METAR CWIS 210200Z AUTO 33008G15KT M02/M03 RMK AO1 SOG 133 1010 SLP201 T10171032
                 =

Support USWX by starting your Amazon purchase here.